Login

enricomac
2 activity; - Last training unit 30/12/2015
30/12/2015 Show to everybody Cumiana e dintroni 27.12 618 01:54:15 14.24 Km\h
28/12/2015 Show to everybody Brondello - Rossana 51.74 639 02:26:43 21.16 Km\h
24/12/2015 Show to everybody Vaccera 42.5 1156 02:18:03 18.47 Km\h
12/12/2015 Show to everybody San Giorgio - Moncuni 33.63 1052 03:03:10 11.02 Km\h
28/11/2015 Show to everybody Freidour + Morelli 24.98 1234 03:00:59 8.28 Km\h
08/09/2015 Show to everybody Passeggiata serale 4.63 8 00:54:15 5.12 Km\h
06/09/2015 Show to everybody 2015/09/06 Granfondo di Torino 170.15 2533 07:01:03 24.25 Km\h
06/09/2015 Show to everybody 2015/09/06 Ritorno da Superga 11.3 29 00:29:34 22.94 Km\h
02/09/2015 Show to everybody 2015/09/02 santa brigida 45.94 269 01:41:26 27.17 Km\h
30/08/2015 Show to everybody 2015/08/30 Passeggiata Verna 7.77 340 02:01:58 3.82 Km\h
29/08/2015 Show to everybody 2015/08/29 Barbara Lowrie 113.21 1562 04:56:51 22.88 Km\h
26/08/2015 Show to everybody 2015/08/26 Giro del Lys con Alessio 78.57 1288 03:17:17 23.9 Km\h
23/08/2015 Show to everybody 2015/08/23 Prova trofeo Agnelli 28.34 45 00:55:33 30.61 Km\h
22/08/2015 Show to everybody 2015/08/22 Fiano colle della Dieta 68.8 1269 03:40:36 18.71 Km\h
20/08/2015 Show to everybody 2015/08/20 Rosta, Col del Lys 48.04 1101 02:26:56 19.62 Km\h
17/08/2015 Show to everybody Giro serale 15.54 95 00:49:56 18.67 Km\h
17/08/2015 Show to everybody 08/17/2015 Candiolo, Passeggiata serale 15.54 27 00:49:56 18.67 Km\h
14/08/2015 Show to everybody 08/14/2015 Pinerolo, Rucas 62.54 1377 03:09:53 19.76 Km\h
11/08/2015 Show to everybody 08/11/2015 Imperia, Ceriana, Baiardo 83 1169 03:59:21 20.81 Km\h
09/08/2015 Show to everybody 08/09/2015 Imperia, Carpasio, Colle d'oggia 63.97 1191 03:33:14 18 Km\h
06/08/2015 Show to everybody 08/06/2015 Imperia, Ginestro 94.34 1136 04:13:51 22.3 Km\h
04/08/2015 Show to everybody 08/04/2015 Imperia, Faudo 36.75 1114 03:32:51 10.36 Km\h
02/08/2015 Show to everybody 08/02/2015 Imperia, Gorleri, Grillarine 42.29 802 02:28:40 17.07 Km\h
31/07/2015 Show to everybody 07/31/2015 Molini Imperia post pranzo atomico 38.02 82 01:26:10 26.47 Km\h
31/07/2015 Show to everybody 07/31/2015 Imperia, Teglia, Molini 58.2 1411 03:38:16 16 Km\h
30/07/2015 Show to everybody 07/30/2015 Molini - Melosa - Triora 32.01 1211 03:29:04 9.19 Km\h
28/07/2015 Show to everybody 07/28/2015 Imperia, Andora, Ginestro 67.16 873 03:16:33 20.5 Km\h
26/07/2015 Show to everybody 07/26/2015 Imperia, Colle d'Oggia 65.68 1222 03:16:13 20.08 Km\h
19/07/2015 Show to everybody 07/19/2015 Pragelato-Ruà, Genevries 30.16 1153 03:19:01 9.09 Km\h
18/07/2015 Show to everybody 07/18/2015 Pragelato-Ruà, Alpe Mey 26.5 552 01:55:51 13.72 Km\h
11/07/2015 Show to everybody 07/11/2015 Caraglio, Fauniera 90.46 1984 04:49:12 18.77 Km\h
05/07/2015 Show to everybody 07/05/2015 Imperia, Aquarone + a spasso nella caldazza 57.19 771 02:44:35 20.85 Km\h
02/07/2015 Show to everybody 07/02/2015 Almese, colle del Lys 30.21 938 01:41:02 17.94 Km\h
28/06/2015 Show to everybody 06/28/2015 Tour lago di Ledro Relax 9.52 54 00:53:42 10.64 Km\h
27/06/2015 Show to everybody 06/27/2015 Riva del Garda, Bocchetta dei Fortini 37.4 1309 04:17:32 8.71 Km\h
25/06/2015 Show to everybody 06/25/2015 Anello Garda - Sarca 53.41 1197 05:12:46 10.25 Km\h
24/06/2015 Show to everybody 06/24/2015 Riva del Garda - Tombio 17.64 736 02:06:21 8.38 Km\h
21/06/2015 Show to everybody 06/21/2015 Prazzo Superiore, colleto Canosio, colle della Gardetta 39.49 1796 05:26:47 7.25 Km\h
01/03/2015 Show to everybody 03/01/2015 Piemonte, Italy 9.13 859 01:49:43 5 Km\h
28/02/2015 Show to everybody 02/28/2015 Candiolo, Piedmont, Italy 88.2 853 03:42:02 23.83 Km\h
21/02/2015 Show to everybody 02/21/2015 Piemonte, Italy 13.89 1121 02:42:50 5.12 Km\h
14/02/2015 Show to everybody 02/14/2015 Piemonte, Italy 7.87 700 02:03:40 3.82 Km\h
08/02/2015 Show to everybody 02/08/2015 Pragelato-Ruà, Piemonte, Italy 8.05 909 02:32:59 3.16 Km\h
07/02/2015 Show to everybody 02/07/2015 Borgata Sestriere, Piemonte, Italy 44.22 4839 04:05:11 10.82 Km\h
01/02/2015 Show to everybody 02/01/2015 Bardonecchia, Piemonte, Italy 10.15 998 02:45:03 3.69 Km\h
31/01/2015 Show to everybody 01/31/2015 Candiolo, Piedmont, Italy 64.55 365 02:13:36 28.99 Km\h CANYON ENDURACE
25/01/2015 Show to everybody 01/25/2015 Balme, Piemonte, Italy 15.24 1121 04:47:11 3.18 Km\h
14/01/2015 Show to everybody 01/14/2015 Long Trung, Tiền Giang, Vietnam 42.06 79 03:43:57 11.27 Km\h
14/01/2015 Show to everybody 01/14/2015 tp. Bến Tre, Bến Tre, Vietnam 16.7 17 02:15:15 7.41 Km\h
14/01/2015 Show to everybody 01/14/2015 Long Trung, Tiền Giang, Vietnam 42.06 79 03:43:57 11.27 Km\h
13/01/2015 Show to everybody 01/13/2015 Nhựt Chánh, Long An, Vietnam 49.81 78 03:08:53 15.82 Km\h
13/01/2015 Show to everybody 01/13/2015 tp. Bến Tre, Bến Tre, Vietnam 18.92 15 01:13:14 15.51 Km\h
10/01/2015 Show to everybody 01/10/2015 Duy Hòa, Quảng Nam, Vietnam 58.94 193 05:07:35 11.5 Km\h
10/01/2015 Show to everybody 01/10/2015 Duy Hòa, Quảng Nam, Vietnam 58.94 193 05:07:35 11.5 Km\h
07/01/2015 Show to everybody 01/07/2015 Trân Châu, Hải Phòng, Vietnam 13.88 153 01:23:24 9.98 Km\h
28/12/2014 Show to everybody 12/28/2014 Piossasco, Piedmont, Italy 6.36 499 01:31:22 4.18 Km\h
21/12/2014 Show to everybody 12/21/2014 Roletto, Piemonte, Italy 22.63 903 02:50:42 7.96 Km\h Stumpjumper FSR comp carbon 2013
20/12/2014 Show to everybody 12/20/2014 Reano, Piemonte, Italy 14.57 462 01:41:34 8.61 Km\h Stumpjumper FSR comp carbon 2013
14/12/2014 Show to everybody 12/14/2014 Piemonte, Italy 12.87 1115 03:59:30 3.22 Km\h
08/12/2014 Show to everybody Banchetta da borgata 9.05 1021 02:12:57 4.08 Km\h
07/12/2014 Show to everybody Querellet da bessen haut 8.33 742 02:27:37 3.38 Km\h
23/11/2014 Show to everybody 11/23/2014 Candiolo, Piedmont, Italy 57.8 688 02:50:03 20.39 Km\h CANYON ENDURACE
16/11/2014 Show to everybody 11/16/2014 Candiolo, Piedmont, Italy 45.42 581 02:12:36 20.55 Km\h CANYON ENDURACE
08/11/2014 Show to everybody 11/08/2014 Candiolo, Piedmont, Italy 87.01 1475 04:32:24 19.17 Km\h
02/11/2014 Show to everybody 11/02/2014 Candiolo, Piedmont, Italy 112.13 1330 05:19:05 21.08 Km\h
01/11/2014 Show to everybody 11/01/2014 Piossasco, Piedmont, Italy 21.54 494 00:52:22 24.69 Km\h
19/10/2014 Show to everybody 10/19/2014 Imperia, Liguria, Italy 49.73 921 02:45:56 17.98 Km\h
18/10/2014 Show to everybody 10/18/2014 Imperia, Liguria, Italy 59.55 815 02:22:04 25.15 Km\h
12/10/2014 Show to everybody 10/12/2014 Rivoli, Piedmont, Italy 21.69 481 02:04:58 10.41 Km\h
11/10/2014 Show to everybody 10/11/2014 Piossasco, Piedmont, Italy 4.52 461 01:07:35 4.01 Km\h
04/10/2014 Show to everybody 10/04/2014 Candiolo, Piedmont, Italy 86.27 1462 03:39:52 23.54 Km\h
28/09/2014 Show to everybody 09/28/2014 Vayr-borla, Piedmont, Italy 15.53 623 01:58:51 7.84 Km\h
27/09/2014 Show to everybody 09/27/2014 Rivoli, Piedmont, Italy 19.18 346 01:01:25 18.74 Km\h
26/09/2014 Show to everybody 09/26/2014 Candiolo, Piedmont, Italy 21.85 32 00:48:35 26.98 Km\h
23/09/2014 Show to everybody 09/23/2014 Rivoli, Piedmont, Italy 20.7 413 01:38:27 12.62 Km\h
14/09/2014 Show to everybody 09/14/2014 Imperia, Liguria, Italy 39.63 736 02:03:03 19.32 Km\h
06/07/2013 Show to everybody Allenamento 06-07-2013 alle 07:35:28.350 69.76 2216 07:19:34 9.52 Km\h Stumpjumper FSR comp carbon 2013
04/07/2013 Show to everybody Allenamento 04-07-2013 alle 16:39:12.000 25.78 723 02:44:07 9.42 Km\h Stumpjumper FSR comp carbon 2013
Training units 0
Kilometers 0 Km
Vertical gain 0 mt
Hours of riding 00:00:00
Average speed 0 Km/h
average HR 142
Points 55
Live Tracking »

Stumpjumper FSR comp carbon 2013 40:53:25 351.49 Km
Custom Deore 26\" 0 Km
Cinelli Pro Estrada 09:37:17 185.98 Km
CANYON ENDURACE 07:16:15 167.78 Km

 
If you stop following this users you will not be able to compare your trainings with his

Now you follow this users and you can compare your trainings


MTB-Forum.it | 2012-2019 Training Camp v.1.6 rev 05